sensor_id;sensor_type;location;lat;lon;timestamp;P1;durP1;ratioP1;P2;durP2;ratioP2
76856;SDS011;69705;44.686;37.628;2023-05-24T00:00:40;18.35;;;8.02;;
76856;SDS011;69705;44.686;37.628;2023-05-24T00:03:07;17.63;;;7.15;;
76856;SDS011;69705;44.686;37.628;2023-05-24T00:05:34;18.40;;;6.90;;
76856;SDS011;69705;44.686;37.628;2023-05-24T00:08:05;13.70;;;7.25;;
76856;SDS011;69705;44.686;37.628;2023-05-24T00:10:32;14.40;;;7.30;;
76856;SDS011;69705;44.686;37.628;2023-05-24T00:12:59;15.48;;;7.93;;
76856;SDS011;69705;44.686;37.628;2023-05-24T00:15:25;19.00;;;8.30;;
76856;SDS011;69705;44.686;37.628;2023-05-24T00:17:52;16.08;;;8.32;;
76856;SDS011;69705;44.686;37.628;2023-05-24T00:20:18;16.50;;;9.02;;
76856;SDS011;69705;44.686;37.628;2023-05-24T00:22:45;16.88;;;9.23;;
76856;SDS011;69705;44.686;37.628;2023-05-24T00:25:12;18.90;;;9.68;;
76856;SDS011;69705;44.686;37.628;2023-05-24T00:27:39;18.50;;;9.63;;
76856;SDS011;69705;44.686;37.628;2023-05-24T00:30:05;21.05;;;10.50;;
76856;SDS011;69705;44.686;37.628;2023-05-24T00:32:33;18.58;;;9.18;;
76856;SDS011;69705;44.686;37.628;2023-05-24T00:35:00;19.23;;;9.52;;
76856;SDS011;69705;44.686;37.628;2023-05-24T00:37:26;19.75;;;9.82;;
76856;SDS011;69705;44.686;37.628;2023-05-24T00:39:54;15.40;;;8.82;;
76856;SDS011;69705;44.686;37.628;2023-05-24T00:42:21;16.50;;;9.75;;
76856;SDS011;69705;44.686;37.628;2023-05-24T00:44:47;19.08;;;9.75;;
76856;SDS011;69705;44.686;37.628;2023-05-24T00:47:14;19.98;;;10.38;;
76856;SDS011;69705;44.686;37.628;2023-05-24T00:49:41;20.10;;;10.23;;
76856;SDS011;69705;44.686;37.628;2023-05-24T00:52:08;20.25;;;11.13;;
76856;SDS011;69705;44.686;37.628;2023-05-24T00:54:35;19.98;;;11.93;;
76856;SDS011;69705;44.686;37.628;2023-05-24T00:57:03;24.15;;;12.60;;
76856;SDS011;69705;44.686;37.628;2023-05-24T00:59:30;22.58;;;12.35;;
76856;SDS011;69705;44.686;37.628;2023-05-24T01:01:57;23.60;;;12.65;;
76856;SDS011;69705;44.686;37.628;2023-05-24T01:04:23;23.67;;;13.27;;
76856;SDS011;69705;44.686;37.628;2023-05-24T01:07:01;26.52;;;13.73;;
76856;SDS011;69705;44.686;37.628;2023-05-24T01:12:18;26.17;;;13.07;;
76856;SDS011;69705;44.686;37.628;2023-05-24T01:15:03;24.58;;;13.68;;
76856;SDS011;69705;44.686;37.628;2023-05-24T01:17:37;24.52;;;12.63;;
76856;SDS011;69705;44.686;37.628;2023-05-24T01:20:11;24.20;;;11.93;;
76856;SDS011;69705;44.686;37.628;2023-05-24T01:22:50;23.08;;;12.93;;
76856;SDS011;69705;44.686;37.628;2023-05-24T01:28:18;26.95;;;12.95;;
76856;SDS011;69705;44.686;37.628;2023-05-24T01:30:46;29.30;;;15.23;;
76856;SDS011;69705;44.686;37.628;2023-05-24T01:33:13;22.38;;;13.77;;
76856;SDS011;69705;44.686;37.628;2023-05-24T01:35:41;26.90;;;15.65;;
76856;SDS011;69705;44.686;37.628;2023-05-24T01:38:08;24.83;;;14.40;;
76856;SDS011;69705;44.686;37.628;2023-05-24T01:40:38;25.85;;;14.50;;
76856;SDS011;69705;44.686;37.628;2023-05-24T01:51:10;23.42;;;13.27;;
76856;SDS011;69705;44.686;37.628;2023-05-24T01:53:44;24.30;;;13.35;;
76856;SDS011;69705;44.686;37.628;2023-05-24T01:56:13;24.10;;;14.45;;
76856;SDS011;69705;44.686;37.628;2023-05-24T01:58:42;22.63;;;13.15;;
76856;SDS011;69705;44.686;37.628;2023-05-24T02:01:10;23.65;;;12.85;;
76856;SDS011;69705;44.686;37.628;2023-05-24T02:03:39;21.30;;;12.55;;
76856;SDS011;69705;44.686;37.628;2023-05-24T02:06:06;21.85;;;12.85;;
76856;SDS011;69705;44.686;37.628;2023-05-24T02:08:33;19.38;;;11.85;;
76856;SDS011;69705;44.686;37.628;2023-05-24T02:10:59;19.23;;;11.80;;
76856;SDS011;69705;44.686;37.628;2023-05-24T02:13:26;20.60;;;12.15;;
76856;SDS011;69705;44.686;37.628;2023-05-24T02:15:52;20.08;;;11.30;;
76856;SDS011;69705;44.686;37.628;2023-05-24T02:18:19;17.42;;;10.18;;
76856;SDS011;69705;44.686;37.628;2023-05-24T02:20:47;17.38;;;9.93;;
76856;SDS011;69705;44.686;37.628;2023-05-24T02:23:15;19.38;;;10.15;;
76856;SDS011;69705;44.686;37.628;2023-05-24T02:25:41;15.70;;;10.20;;
76856;SDS011;69705;44.686;37.628;2023-05-24T02:28:08;15.18;;;9.57;;
76856;SDS011;69705;44.686;37.628;2023-05-24T02:30:35;15.02;;;9.05;;
76856;SDS011;69705;44.686;37.628;2023-05-24T02:33:03;14.40;;;8.55;;
76856;SDS011;69705;44.686;37.628;2023-05-24T02:35:30;13.63;;;8.20;;
76856;SDS011;69705;44.686;37.628;2023-05-24T02:37:58;13.68;;;8.15;;
76856;SDS011;69705;44.686;37.628;2023-05-24T02:40:26;15.48;;;8.85;;
76856;SDS011;69705;44.686;37.628;2023-05-24T02:42:53;13.27;;;8.25;;
76856;SDS011;69705;44.686;37.628;2023-05-24T02:45:19;18.38;;;9.43;;
76856;SDS011;69705;44.686;37.628;2023-05-24T02:47:46;16.50;;;9.43;;
76856;SDS011;69705;44.686;37.628;2023-05-24T02:50:13;17.60;;;10.65;;
76856;SDS011;69705;44.686;37.628;2023-05-24T02:52:39;17.25;;;10.20;;
76856;SDS011;69705;44.686;37.628;2023-05-24T02:55:06;18.83;;;11.63;;
76856;SDS011;69705;44.686;37.628;2023-05-24T02:57:34;19.33;;;11.57;;
76856;SDS011;69705;44.686;37.628;2023-05-24T03:00:03;17.60;;;10.60;;
76856;SDS011;69705;44.686;37.628;2023-05-24T03:02:33;20.83;;;10.68;;
76856;SDS011;69705;44.686;37.628;2023-05-24T03:05:03;18.52;;;11.45;;
76856;SDS011;69705;44.686;37.628;2023-05-24T03:07:30;21.13;;;11.07;;
76856;SDS011;69705;44.686;37.628;2023-05-24T03:09:57;20.35;;;11.65;;
76856;SDS011;69705;44.686;37.628;2023-05-24T03:12:25;19.33;;;11.57;;
76856;SDS011;69705;44.686;37.628;2023-05-24T03:14:51;19.30;;;11.80;;
76856;SDS011;69705;44.686;37.628;2023-05-24T03:17:18;20.58;;;11.40;;
76856;SDS011;69705;44.686;37.628;2023-05-24T03:19:44;18.02;;;9.80;;
76856;SDS011;69705;44.686;37.628;2023-05-24T03:22:12;17.05;;;9.48;;
76856;SDS011;69705;44.686;37.628;2023-05-24T03:24:38;15.85;;;9.82;;
76856;SDS011;69705;44.686;37.628;2023-05-24T03:27:05;13.50;;;9.05;;
76856;SDS011;69705;44.686;37.628;2023-05-24T03:29:32;13.60;;;8.50;;
76856;SDS011;69705;44.686;37.628;2023-05-24T03:31:59;12.57;;;8.05;;
76856;SDS011;69705;44.686;37.628;2023-05-24T03:34:26;12.18;;;7.68;;
76856;SDS011;69705;44.686;37.628;2023-05-24T03:36:53;12.48;;;7.72;;
76856;SDS011;69705;44.686;37.628;2023-05-24T03:39:20;16.15;;;8.63;;
76856;SDS011;69705;44.686;37.628;2023-05-24T03:42:05;16.27;;;8.30;;
76856;SDS011;69705;44.686;37.628;2023-05-24T03:44:32;13.90;;;8.80;;
76856;SDS011;69705;44.686;37.628;2023-05-24T03:46:58;13.95;;;8.75;;
76856;SDS011;69705;44.686;37.628;2023-05-24T03:49:25;15.70;;;8.25;;
76856;SDS011;69705;44.686;37.628;2023-05-24T03:51:52;14.20;;;8.70;;
76856;SDS011;69705;44.686;37.628;2023-05-24T03:54:19;15.05;;;9.40;;
76856;SDS011;69705;44.686;37.628;2023-05-24T03:56:45;15.68;;;9.60;;
76856;SDS011;69705;44.686;37.628;2023-05-24T03:59:12;16.25;;;9.98;;
76856;SDS011;69705;44.686;37.628;2023-05-24T04:01:38;17.77;;;9.75;;
76856;SDS011;69705;44.686;37.628;2023-05-24T04:04:05;16.83;;;10.40;;
76856;SDS011;69705;44.686;37.628;2023-05-24T04:06:31;21.50;;;10.55;;
76856;SDS011;69705;44.686;37.628;2023-05-24T04:08:58;16.83;;;10.07;;
76856;SDS011;69705;44.686;37.628;2023-05-24T04:11:26;18.60;;;10.15;;
76856;SDS011;69705;44.686;37.628;2023-05-24T04:13:54;18.25;;;10.07;;
76856;SDS011;69705;44.686;37.628;2023-05-24T04:16:24;14.73;;;9.30;;
76856;SDS011;69705;44.686;37.628;2023-05-24T04:18:53;18.33;;;9.27;;
76856;SDS011;69705;44.686;37.628;2023-05-24T04:21:20;16.50;;;9.73;;
76856;SDS011;69705;44.686;37.628;2023-05-24T04:23:48;17.67;;;10.00;;
76856;SDS011;69705;44.686;37.628;2023-05-24T04:26:14;16.63;;;10.00;;
76856;SDS011;69705;44.686;37.628;2023-05-24T04:28:42;19.55;;;10.13;;
76856;SDS011;69705;44.686;37.628;2023-05-24T04:31:10;18.10;;;9.90;;
76856;SDS011;69705;44.686;37.628;2023-05-24T04:33:42;16.27;;;8.75;;
76856;SDS011;69705;44.686;37.628;2023-05-24T04:36:09;16.00;;;9.27;;
76856;SDS011;69705;44.686;37.628;2023-05-24T04:38:37;15.57;;;9.27;;
76856;SDS011;69705;44.686;37.628;2023-05-24T04:41:04;17.90;;;9.63;;
76856;SDS011;69705;44.686;37.628;2023-05-24T04:43:31;16.05;;;9.48;;
76856;SDS011;69705;44.686;37.628;2023-05-24T04:46:01;16.65;;;9.20;;
76856;SDS011;69705;44.686;37.628;2023-05-24T04:48:28;15.73;;;9.02;;
76856;SDS011;69705;44.686;37.628;2023-05-24T04:50:55;17.83;;;9.50;;
76856;SDS011;69705;44.686;37.628;2023-05-24T04:53:23;18.23;;;9.40;;
76856;SDS011;69705;44.686;37.628;2023-05-24T04:55:50;16.85;;;9.25;;
76856;SDS011;69705;44.686;37.628;2023-05-24T04:58:17;17.02;;;9.00;;
76856;SDS011;69705;44.686;37.628;2023-05-24T05:00:43;16.92;;;8.63;;
76856;SDS011;69705;44.686;37.628;2023-05-24T05:03:10;17.00;;;9.15;;
76856;SDS011;69705;44.686;37.628;2023-05-24T05:05:37;15.52;;;9.45;;
76856;SDS011;69705;44.686;37.628;2023-05-24T05:08:03;17.15;;;9.25;;
76856;SDS011;69705;44.686;37.628;2023-05-24T05:10:31;17.38;;;9.13;;
76856;SDS011;69705;44.686;37.628;2023-05-24T05:12:57;16.88;;;9.15;;
76856;SDS011;69705;44.686;37.628;2023-05-24T05:15:24;16.52;;;9.90;;
76856;SDS011;69705;44.686;37.628;2023-05-24T05:17:50;18.73;;;9.18;;
76856;SDS011;69705;44.686;37.628;2023-05-24T05:20:17;15.30;;;8.13;;
76856;SDS011;69705;44.686;37.628;2023-05-24T05:22:44;16.80;;;9.23;;
76856;SDS011;69705;44.686;37.628;2023-05-24T05:25:14;18.35;;;8.50;;
76856;SDS011;69705;44.686;37.628;2023-05-24T05:27:41;18.85;;;9.88;;
76856;SDS011;69705;44.686;37.628;2023-05-24T05:30:07;16.20;;;9.95;;
76856;SDS011;69705;44.686;37.628;2023-05-24T05:32:34;16.02;;;9.27;;
76856;SDS011;69705;44.686;37.628;2023-05-24T05:35:02;13.93;;;8.82;;
76856;SDS011;69705;44.686;37.628;2023-05-24T05:37:29;16.58;;;8.82;;
76856;SDS011;69705;44.686;37.628;2023-05-24T05:39:56;16.40;;;9.32;;
76856;SDS011;69705;44.686;37.628;2023-05-24T05:42:23;16.90;;;9.80;;
76856;SDS011;69705;44.686;37.628;2023-05-24T05:44:49;18.50;;;10.07;;
76856;SDS011;69705;44.686;37.628;2023-05-24T05:47:17;18.80;;;10.90;;
76856;SDS011;69705;44.686;37.628;2023-05-24T05:49:44;18.67;;;9.85;;
76856;SDS011;69705;44.686;37.628;2023-05-24T05:52:10;18.73;;;9.35;;
76856;SDS011;69705;44.686;37.628;2023-05-24T05:54:37;16.80;;;9.02;;
76856;SDS011;69705;44.686;37.628;2023-05-24T05:57:03;16.52;;;8.45;;
76856;SDS011;69705;44.686;37.628;2023-05-24T05:59:30;15.45;;;8.65;;
76856;SDS011;69705;44.686;37.628;2023-05-24T06:02:05;15.55;;;8.27;;
76856;SDS011;69705;44.686;37.628;2023-05-24T06:04:31;14.05;;;8.18;;
76856;SDS011;69705;44.686;37.628;2023-05-24T06:06:58;14.70;;;7.70;;
76856;SDS011;69705;44.686;37.628;2023-05-24T06:09:24;16.83;;;8.13;;
76856;SDS011;69705;44.686;37.628;2023-05-24T06:11:51;15.38;;;8.40;;
76856;SDS011;69705;44.686;37.628;2023-05-24T06:14:18;16.35;;;7.90;;
76856;SDS011;69705;44.686;37.628;2023-05-24T06:16:47;15.80;;;8.75;;
76856;SDS011;69705;44.686;37.628;2023-05-24T06:19:13;15.98;;;8.38;;
76856;SDS011;69705;44.686;37.628;2023-05-24T06:21:41;18.45;;;9.05;;
76856;SDS011;69705;44.686;37.628;2023-05-24T06:24:13;15.18;;;8.45;;
76856;SDS011;69705;44.686;37.628;2023-05-24T06:26:40;17.95;;;8.57;;
76856;SDS011;69705;44.686;37.628;2023-05-24T06:29:07;14.73;;;7.18;;
76856;SDS011;69705;44.686;37.628;2023-05-24T06:31:34;14.55;;;8.00;;
76856;SDS011;69705;44.686;37.628;2023-05-24T06:34:01;15.05;;;7.97;;
76856;SDS011;69705;44.686;37.628;2023-05-24T06:36:28;16.27;;;7.38;;
76856;SDS011;69705;44.686;37.628;2023-05-24T06:38:54;14.77;;;7.47;;
76856;SDS011;69705;44.686;37.628;2023-05-24T06:41:26;13.55;;;7.43;;
76856;SDS011;69705;44.686;37.628;2023-05-24T06:43:53;16.95;;;6.80;;
76856;SDS011;69705;44.686;37.628;2023-05-24T06:46:20;14.00;;;7.00;;
76856;SDS011;69705;44.686;37.628;2023-05-24T06:48:46;11.75;;;6.70;;
76856;SDS011;69705;44.686;37.628;2023-05-24T06:51:13;13.63;;;7.18;;
76856;SDS011;69705;44.686;37.628;2023-05-24T06:53:40;12.80;;;7.45;;
76856;SDS011;69705;44.686;37.628;2023-05-24T06:56:06;12.38;;;6.82;;
76856;SDS011;69705;44.686;37.628;2023-05-24T06:58:34;13.02;;;6.88;;
76856;SDS011;69705;44.686;37.628;2023-05-24T07:01:01;16.23;;;6.95;;
76856;SDS011;69705;44.686;37.628;2023-05-24T07:03:30;13.77;;;6.82;;
76856;SDS011;69705;44.686;37.628;2023-05-24T07:05:57;14.68;;;6.80;;
76856;SDS011;69705;44.686;37.628;2023-05-24T07:08:24;14.75;;;6.80;;
76856;SDS011;69705;44.686;37.628;2023-05-24T07:10:51;11.90;;;7.07;;
76856;SDS011;69705;44.686;37.628;2023-05-24T07:13:18;15.70;;;7.20;;
76856;SDS011;69705;44.686;37.628;2023-05-24T07:15:45;13.73;;;6.93;;
76856;SDS011;69705;44.686;37.628;2023-05-24T07:18:12;15.75;;;7.20;;
76856;SDS011;69705;44.686;37.628;2023-05-24T07:20:39;14.38;;;7.05;;
76856;SDS011;69705;44.686;37.628;2023-05-24T07:23:06;12.55;;;7.18;;
76856;SDS011;69705;44.686;37.628;2023-05-24T07:25:32;16.13;;;7.22;;
76856;SDS011;69705;44.686;37.628;2023-05-24T07:27:59;15.75;;;7.53;;
76856;SDS011;69705;44.686;37.628;2023-05-24T07:30:26;12.00;;;6.60;;
76856;SDS011;69705;44.686;37.628;2023-05-24T07:32:54;12.18;;;6.45;;
76856;SDS011;69705;44.686;37.628;2023-05-24T07:35:20;12.82;;;6.57;;
76856;SDS011;69705;44.686;37.628;2023-05-24T07:37:48;12.77;;;6.05;;
76856;SDS011;69705;44.686;37.628;2023-05-24T07:40:15;13.25;;;6.95;;
76856;SDS011;69705;44.686;37.628;2023-05-24T07:42:42;12.20;;;6.40;;
76856;SDS011;69705;44.686;37.628;2023-05-24T07:45:09;17.10;;;7.10;;
76856;SDS011;69705;44.686;37.628;2023-05-24T07:47:36;13.38;;;6.57;;
76856;SDS011;69705;44.686;37.628;2023-05-24T07:50:03;13.93;;;6.85;;
76856;SDS011;69705;44.686;37.628;2023-05-24T07:52:30;12.38;;;6.15;;
76856;SDS011;69705;44.686;37.628;2023-05-24T07:55:03;15.35;;;6.72;;
76856;SDS011;69705;44.686;37.628;2023-05-24T07:57:31;15.07;;;6.95;;
76856;SDS011;69705;44.686;37.628;2023-05-24T07:59:58;11.25;;;6.05;;
76856;SDS011;69705;44.686;37.628;2023-05-24T08:02:57;14.88;;;7.32;;
76856;SDS011;69705;44.686;37.628;2023-05-24T08:05:27;13.00;;;6.35;;
76856;SDS011;69705;44.686;37.628;2023-05-24T08:07:54;13.93;;;6.10;;
76856;SDS011;69705;44.686;37.628;2023-05-24T08:10:27;13.57;;;6.57;;
76856;SDS011;69705;44.686;37.628;2023-05-24T08:12:54;14.73;;;5.93;;
76856;SDS011;69705;44.686;37.628;2023-05-24T08:15:21;15.65;;;6.70;;
76856;SDS011;69705;44.686;37.628;2023-05-24T08:17:47;12.55;;;5.95;;
76856;SDS011;69705;44.686;37.628;2023-05-24T08:20:14;14.27;;;6.13;;
76856;SDS011;69705;44.686;37.628;2023-05-24T08:22:41;14.90;;;6.28;;
76856;SDS011;69705;44.686;37.628;2023-05-24T08:25:09;13.90;;;5.80;;
76856;SDS011;69705;44.686;37.628;2023-05-24T08:27:36;12.95;;;5.57;;
76856;SDS011;69705;44.686;37.628;2023-05-24T08:30:03;12.75;;;5.70;;
76856;SDS011;69705;44.686;37.628;2023-05-24T08:32:30;14.60;;;5.93;;
76856;SDS011;69705;44.686;37.628;2023-05-24T08:34:57;14.93;;;5.70;;
76856;SDS011;69705;44.686;37.628;2023-05-24T08:37:24;13.18;;;5.35;;
76856;SDS011;69705;44.686;37.628;2023-05-24T08:39:51;11.98;;;5.40;;
76856;SDS011;69705;44.686;37.628;2023-05-24T08:42:17;12.60;;;5.50;;
76856;SDS011;69705;44.686;37.628;2023-05-24T08:44:47;12.37;;;5.23;;
76856;SDS011;69705;44.686;37.628;2023-05-24T08:47:19;13.38;;;5.80;;
76856;SDS011;69705;44.686;37.628;2023-05-24T08:49:49;11.13;;;5.28;;
76856;SDS011;69705;44.686;37.628;2023-05-24T08:52:16;10.57;;;5.50;;
76856;SDS011;69705;44.686;37.628;2023-05-24T08:54:46;14.18;;;5.43;;
76856;SDS011;69705;44.686;37.628;2023-05-24T08:57:15;11.05;;;5.28;;
76856;SDS011;69705;44.686;37.628;2023-05-24T08:59:42;13.00;;;5.57;;
76856;SDS011;69705;44.686;37.628;2023-05-24T09:02:10;11.88;;;5.75;;
76856;SDS011;69705;44.686;37.628;2023-05-24T09:04:40;11.30;;;5.35;;
76856;SDS011;69705;44.686;37.628;2023-05-24T09:07:09;12.65;;;5.47;;
76856;SDS011;69705;44.686;37.628;2023-05-24T09:09:40;10.03;;;4.97;;
76856;SDS011;69705;44.686;37.628;2023-05-24T09:12:10;12.98;;;5.55;;
76856;SDS011;69705;44.686;37.628;2023-05-24T09:14:44;12.52;;;5.05;;
76856;SDS011;69705;44.686;37.628;2023-05-24T09:17:12;13.82;;;5.32;;
76856;SDS011;69705;44.686;37.628;2023-05-24T09:19:44;12.48;;;5.43;;
76856;SDS011;69705;44.686;37.628;2023-05-24T09:22:14;10.55;;;5.38;;
76856;SDS011;69705;44.686;37.628;2023-05-24T09:24:48;11.35;;;5.63;;
76856;SDS011;69705;44.686;37.628;2023-05-24T09:27:15;10.18;;;5.15;;
76856;SDS011;69705;44.686;37.628;2023-05-24T09:29:43;11.90;;;5.43;;
76856;SDS011;69705;44.686;37.628;2023-05-24T09:32:17;10.70;;;5.55;;
76856;SDS011;69705;44.686;37.628;2023-05-24T09:34:46;11.15;;;4.97;;
76856;SDS011;69705;44.686;37.628;2023-05-24T09:37:14;11.80;;;5.43;;
76856;SDS011;69705;44.686;37.628;2023-05-24T09:39:42;15.50;;;5.40;;
76856;SDS011;69705;44.686;37.628;2023-05-24T09:42:13;10.93;;;5.32;;
76856;SDS011;69705;44.686;37.628;2023-05-24T09:45:03;12.23;;;5.32;;
76856;SDS011;69705;44.686;37.628;2023-05-24T09:47:34;10.30;;;5.40;;
76856;SDS011;69705;44.686;37.628;2023-05-24T09:50:03;11.65;;;5.30;;
76856;SDS011;69705;44.686;37.628;2023-05-24T09:52:35;11.40;;;5.03;;
76856;SDS011;69705;44.686;37.628;2023-05-24T09:57:43;11.05;;;4.80;;
76856;SDS011;69705;44.686;37.628;2023-05-24T10:00:15;12.47;;;5.30;;
76856;SDS011;69705;44.686;37.628;2023-05-24T10:03:06;13.93;;;5.50;;
76856;SDS011;69705;44.686;37.628;2023-05-24T10:05:36;10.98;;;5.43;;
76856;SDS011;69705;44.686;37.628;2023-05-24T10:08:03;11.27;;;5.05;;
76856;SDS011;69705;44.686;37.628;2023-05-24T10:10:31;12.85;;;5.20;;
76856;SDS011;69705;44.686;37.628;2023-05-24T10:12:58;10.70;;;5.00;;
76856;SDS011;69705;44.686;37.628;2023-05-24T10:15:26;15.85;;;5.75;;
76856;SDS011;69705;44.686;37.628;2023-05-24T10:17:54;9.90;;;4.85;;
76856;SDS011;69705;44.686;37.628;2023-05-24T10:20:22;11.27;;;5.13;;
76856;SDS011;69705;44.686;37.628;2023-05-24T10:22:53;11.05;;;5.07;;
76856;SDS011;69705;44.686;37.628;2023-05-24T10:25:25;11.97;;;4.80;;
76856;SDS011;69705;44.686;37.628;2023-05-24T10:27:56;13.20;;;5.20;;
76856;SDS011;69705;44.686;37.628;2023-05-24T10:33:35;13.80;;;5.30;;
76856;SDS011;69705;44.686;37.628;2023-05-24T10:36:06;12.55;;;5.10;;
76856;SDS011;69705;44.686;37.628;2023-05-24T10:38:38;10.90;;;5.83;;
76856;SDS011;69705;44.686;37.628;2023-05-24T10:41:05;11.25;;;5.65;;
76856;SDS011;69705;44.686;37.628;2023-05-24T10:43:33;11.13;;;5.03;;
76856;SDS011;69705;44.686;37.628;2023-05-24T10:46:01;13.90;;;5.72;;
76856;SDS011;69705;44.686;37.628;2023-05-24T10:48:36;11.32;;;5.20;;
76856;SDS011;69705;44.686;37.628;2023-05-24T10:54:24;11.70;;;5.45;;
76856;SDS011;69705;44.686;37.628;2023-05-24T10:56:53;10.32;;;5.20;;
76856;SDS011;69705;44.686;37.628;2023-05-24T10:59:22;12.80;;;5.13;;
76856;SDS011;69705;44.686;37.628;2023-05-24T11:02:13;12.65;;;5.38;;
76856;SDS011;69705;44.686;37.628;2023-05-24T11:04:41;9.50;;;5.00;;
76856;SDS011;69705;44.686;37.628;2023-05-24T11:07:14;9.38;;;5.07;;
76856;SDS011;69705;44.686;37.628;2023-05-24T11:09:42;12.40;;;5.50;;
76856;SDS011;69705;44.686;37.628;2023-05-24T11:12:18;10.43;;;5.78;;
76856;SDS011;69705;44.686;37.628;2023-05-24T11:14:49;11.90;;;5.72;;
76856;SDS011;69705;44.686;37.628;2023-05-24T11:17:20;13.70;;;5.73;;
76856;SDS011;69705;44.686;37.628;2023-05-24T11:19:51;10.15;;;5.15;;
76856;SDS011;69705;44.686;37.628;2023-05-24T11:22:20;14.55;;;5.07;;
76856;SDS011;69705;44.686;37.628;2023-05-24T11:24:48;12.98;;;4.80;;
76856;SDS011;69705;44.686;37.628;2023-05-24T11:27:17;12.82;;;5.10;;
76856;SDS011;69705;44.686;37.628;2023-05-24T11:29:44;12.00;;;5.57;;
76856;SDS011;69705;44.686;37.628;2023-05-24T11:32:15;14.73;;;5.35;;
76856;SDS011;69705;44.686;37.628;2023-05-24T11:34:44;12.20;;;5.22;;
76856;SDS011;69705;44.686;37.628;2023-05-24T11:37:12;10.07;;;4.82;;
76856;SDS011;69705;44.686;37.628;2023-05-24T11:39:40;11.48;;;4.93;;
76856;SDS011;69705;44.686;37.628;2023-05-24T11:42:07;10.83;;;4.90;;
76856;SDS011;69705;44.686;37.628;2023-05-24T11:44:34;9.95;;;4.57;;
76856;SDS011;69705;44.686;37.628;2023-05-24T11:47:06;11.07;;;4.80;;
76856;SDS011;69705;44.686;37.628;2023-05-24T11:49:33;11.70;;;5.10;;
76856;SDS011;69705;44.686;37.628;2023-05-24T11:52:00;12.38;;;5.28;;
76856;SDS011;69705;44.686;37.628;2023-05-24T11:54:27;12.97;;;4.80;;
76856;SDS011;69705;44.686;37.628;2023-05-24T11:56:58;11.13;;;5.00;;
76856;SDS011;69705;44.686;37.628;2023-05-24T11:59:25;11.23;;;4.70;;
76856;SDS011;69705;44.686;37.628;2023-05-24T12:02:00;11.75;;;5.10;;
76856;SDS011;69705;44.686;37.628;2023-05-24T12:04:29;11.85;;;4.80;;
76856;SDS011;69705;44.686;37.628;2023-05-24T12:06:57;12.33;;;5.43;;
76856;SDS011;69705;44.686;37.628;2023-05-24T12:09:24;13.20;;;5.45;;
76856;SDS011;69705;44.686;37.628;2023-05-24T12:11:51;13.30;;;4.93;;
76856;SDS011;69705;44.686;37.628;2023-05-24T12:14:20;10.43;;;4.63;;
76856;SDS011;69705;44.686;37.628;2023-05-24T12:16:52;11.57;;;5.20;;
76856;SDS011;69705;44.686;37.628;2023-05-24T12:19:43;10.60;;;4.80;;
76856;SDS011;69705;44.686;37.628;2023-05-24T12:22:10;11.20;;;4.97;;
76856;SDS011;69705;44.686;37.628;2023-05-24T12:24:36;12.30;;;4.47;;
76856;SDS011;69705;44.686;37.628;2023-05-24T12:27:03;13.23;;;4.97;;
76856;SDS011;69705;44.686;37.628;2023-05-24T12:29:35;11.90;;;4.68;;
76856;SDS011;69705;44.686;37.628;2023-05-24T12:32:03;11.27;;;4.50;;
76856;SDS011;69705;44.686;37.628;2023-05-24T12:34:31;12.20;;;4.53;;
76856;SDS011;69705;44.686;37.628;2023-05-24T12:36:58;9.52;;;4.03;;
76856;SDS011;69705;44.686;37.628;2023-05-24T12:39:26;11.85;;;4.50;;
76856;SDS011;69705;44.686;37.628;2023-05-24T12:41:56;9.02;;;4.18;;
76856;SDS011;69705;44.686;37.628;2023-05-24T12:47:44;10.50;;;4.30;;
76856;SDS011;69705;44.686;37.628;2023-05-24T12:50:12;13.77;;;4.75;;
76856;SDS011;69705;44.686;37.628;2023-05-24T12:52:39;9.90;;;4.38;;
76856;SDS011;69705;44.686;37.628;2023-05-24T12:55:07;11.43;;;4.80;;
76856;SDS011;69705;44.686;37.628;2023-05-24T12:57:34;11.00;;;5.10;;
76856;SDS011;69705;44.686;37.628;2023-05-24T13:00:01;10.93;;;4.97;;
76856;SDS011;69705;44.686;37.628;2023-05-24T13:02:28;11.65;;;5.18;;
76856;SDS011;69705;44.686;37.628;2023-05-24T13:04:55;13.90;;;5.22;;
76856;SDS011;69705;44.686;37.628;2023-05-24T13:07:22;11.60;;;5.05;;
76856;SDS011;69705;44.686;37.628;2023-05-24T13:09:48;14.53;;;5.00;;
76856;SDS011;69705;44.686;37.628;2023-05-24T13:12:15;12.65;;;4.90;;
76856;SDS011;69705;44.686;37.628;2023-05-24T13:14:42;11.85;;;5.10;;
76856;SDS011;69705;44.686;37.628;2023-05-24T13:17:09;11.70;;;5.32;;
76856;SDS011;69705;44.686;37.628;2023-05-24T13:19:36;11.70;;;5.20;;
76856;SDS011;69705;44.686;37.628;2023-05-24T13:22:03;14.13;;;5.80;;
76856;SDS011;69705;44.686;37.628;2023-05-24T13:24:30;12.98;;;5.30;;
76856;SDS011;69705;44.686;37.628;2023-05-24T13:26:56;11.65;;;5.70;;
76856;SDS011;69705;44.686;37.628;2023-05-24T13:29:23;10.18;;;4.65;;
76856;SDS011;69705;44.686;37.628;2023-05-24T13:31:49;13.00;;;5.90;;
76856;SDS011;69705;44.686;37.628;2023-05-24T13:34:16;12.00;;;6.20;;
76856;SDS011;69705;44.686;37.628;2023-05-24T13:36:43;13.98;;;5.82;;
76856;SDS011;69705;44.686;37.628;2023-05-24T13:39:11;12.90;;;5.97;;
76856;SDS011;69705;44.686;37.628;2023-05-24T13:41:37;12.65;;;6.00;;
76856;SDS011;69705;44.686;37.628;2023-05-24T13:44:04;10.25;;;4.32;;
76856;SDS011;69705;44.686;37.628;2023-05-24T13:46:31;9.87;;;4.60;;
76856;SDS011;69705;44.686;37.628;2023-05-24T13:48:58;13.60;;;5.80;;
76856;SDS011;69705;44.686;37.628;2023-05-24T13:51:25;14.15;;;5.97;;
76856;SDS011;69705;44.686;37.628;2023-05-24T13:53:52;14.43;;;5.03;;
76856;SDS011;69705;44.686;37.628;2023-05-24T13:56:21;11.75;;;4.80;;
76856;SDS011;69705;44.686;37.628;2023-05-24T13:58:49;14.03;;;5.90;;
76856;SDS011;69705;44.686;37.628;2023-05-24T14:01:15;13.65;;;5.75;;
76856;SDS011;69705;44.686;37.628;2023-05-24T14:03:42;13.07;;;4.90;;
76856;SDS011;69705;44.686;37.628;2023-05-24T14:06:09;11.70;;;4.60;;
76856;SDS011;69705;44.686;37.628;2023-05-24T14:08:35;12.05;;;4.40;;
76856;SDS011;69705;44.686;37.628;2023-05-24T14:11:02;27.80;;;4.93;;
76856;SDS011;69705;44.686;37.628;2023-05-24T14:13:29;12.27;;;4.60;;
76856;SDS011;69705;44.686;37.628;2023-05-24T14:15:55;14.20;;;5.00;;
76856;SDS011;69705;44.686;37.628;2023-05-24T14:18:22;12.48;;;5.10;;
76856;SDS011;69705;44.686;37.628;2023-05-24T14:20:49;9.60;;;4.70;;
76856;SDS011;69705;44.686;37.628;2023-05-24T14:23:16;11.97;;;4.57;;
76856;SDS011;69705;44.686;37.628;2023-05-24T14:25:43;11.15;;;4.47;;
76856;SDS011;69705;44.686;37.628;2023-05-24T14:28:11;12.23;;;4.72;;
76856;SDS011;69705;44.686;37.628;2023-05-24T14:30:38;9.48;;;4.55;;
76856;SDS011;69705;44.686;37.628;2023-05-24T14:33:04;13.15;;;4.95;;
76856;SDS011;69705;44.686;37.628;2023-05-24T14:35:32;10.13;;;4.40;;
76856;SDS011;69705;44.686;37.628;2023-05-24T14:38:03;10.15;;;4.72;;
76856;SDS011;69705;44.686;37.628;2023-05-24T14:40:31;10.05;;;4.35;;
76856;SDS011;69705;44.686;37.628;2023-05-24T14:43:06;14.85;;;4.65;;
76856;SDS011;69705;44.686;37.628;2023-05-24T14:45:35;13.60;;;4.60;;
76856;SDS011;69705;44.686;37.628;2023-05-24T14:48:03;9.97;;;4.60;;
76856;SDS011;69705;44.686;37.628;2023-05-24T14:50:30;9.65;;;5.15;;
76856;SDS011;69705;44.686;37.628;2023-05-24T14:52:57;13.90;;;4.90;;